Evansville, Arkansas
Current Conditions -  °F | °C
As of 5:53 AM on Monday 26 Jan 2015 (Local Time) from KFYV Reporting Station
Few Clouds Few Clouds  
Wind Chill: 32°   Ceiling: Unl
Heat Index: 32°   Visibility: 10mi
Dew Point: 27°   Wind: 3mph
Humidity: 82%   Direction: 260°W
Pressure: 30.13"   Gusts: NA
Location:  35.8°N, 94.5°W
Report Text: KFYV 261153Z AUTO 26003KT 10SM FEW022 00/M03 A3013 RMK AO2 SLP208 T00001028 10033 20000 51007
Loading
Personal Weather Stations






























Interactive Weather Map New forecast layout! Learn more

10-Day Weather Forecast

Advertisements
Track Severe Weather on mobile